createdAt,value
2023-04-07T09:35:03.948Z,101930.67
2023-04-07T09:36:07.916Z,101931.74
2023-04-07T09:37:22.624Z,101929.83
2023-04-07T09:38:34.107Z,101932.52
2023-04-07T09:39:51.559Z,101932.32
2023-04-07T09:41:09.939Z,101930.30
2023-04-07T09:42:12.750Z,101930.49
2023-04-07T09:43:18.605Z,101928.20
2023-04-07T09:44:22.634Z,101929.92
2023-04-07T09:46:35.933Z,101933.30
2023-04-07T09:47:39.450Z,101928.66
2023-04-07T09:48:43.902Z,101934.96
2023-04-07T09:49:54.260Z,101932.02
2023-04-07T09:51:07.157Z,101932.05
2023-04-07T09:52:11.281Z,101932.92
2023-04-07T09:53:14.104Z,101934.48
2023-04-07T09:54:33.002Z,101931.66
2023-04-07T09:55:36.912Z,101931.67
2023-04-07T09:56:39.942Z,101937.02
2023-04-07T09:57:44.332Z,101937.27
2023-04-07T09:58:48.693Z,101937.48
2023-04-07T09:59:54.229Z,101938.25
2023-04-07T10:00:57.944Z,101940.11
2023-04-07T10:02:01.352Z,101939.91
2023-04-07T10:03:04.717Z,101942.38
2023-04-07T10:04:08.754Z,101939.55
2023-04-07T10:05:11.954Z,101944.51
2023-04-07T10:06:14.760Z,101944.31
2023-04-07T10:07:17.708Z,101940.95
2023-04-07T10:08:21.373Z,101943.73
2023-04-07T10:09:27.598Z,101942.34
2023-04-07T10:10:31.924Z,101942.94
2023-04-07T10:11:37.508Z,101943.54
2023-04-07T10:12:42.318Z,101942.08
2023-04-07T10:13:46.081Z,101945.16
2023-04-07T10:14:50.416Z,101941.04
2023-04-07T10:15:53.396Z,101949.11
2023-04-07T10:16:57.508Z,101946.48
2023-04-07T10:18:00.865Z,101944.16
2023-04-07T10:19:05.468Z,101950.45
2023-04-07T10:20:11.105Z,101951.77
2023-04-07T10:21:16.698Z,101949.35
2023-04-07T10:22:20.589Z,101947.08
2023-04-07T10:23:29.096Z,101942.70
2023-04-07T10:24:44.988Z,101945.47
2023-04-07T10:25:52.685Z,101946.23
2023-04-07T10:26:59.676Z,101946.03
2023-04-07T10:28:09.686Z,101948.95
2023-04-07T10:29:15.419Z,101946.94
2023-04-07T10:30:24.181Z,101950.80
2023-04-07T10:31:27.600Z,101948.98
2023-04-07T10:32:30.827Z,101949.69
2023-04-07T10:33:47.062Z,101947.82
2023-04-07T10:34:50.279Z,101948.48
2023-04-07T10:36:08.670Z,101950.36
2023-04-07T10:37:17.942Z,101943.80
2023-04-07T10:38:21.338Z,101946.79
2023-04-07T10:39:24.305Z,101947.19
2023-04-07T10:40:28.480Z,101946.19
2023-04-07T10:41:52.015Z,101946.34
2023-04-07T10:42:56.455Z,101944.54
2023-04-07T10:43:59.222Z,101945.11
2023-04-07T10:45:03.538Z,101937.77
2023-04-07T10:46:06.359Z,101942.06
2023-04-07T10:47:09.678Z,101936.96
2023-04-07T10:48:14.893Z,101940.08
2023-04-07T10:49:19.047Z,101941.48
2023-04-07T10:50:23.765Z,101936.80
2023-04-07T10:51:27.214Z,101936.16
2023-04-07T10:52:30.015Z,101935.23
2023-04-07T10:53:37.051Z,101934.46
2023-04-07T10:54:40.823Z,101938.86
2023-04-07T10:55:47.225Z,101938.48
2023-04-07T10:57:11.077Z,101935.30
2023-04-07T10:58:24.800Z,101939.70
2023-04-07T10:59:28.209Z,101937.28
2023-04-07T11:00:30.973Z,101938.14
2023-04-07T11:01:34.797Z,101935.84
2023-04-07T11:02:41.547Z,101937.23
2023-04-07T11:03:56.824Z,101935.17
2023-04-07T11:04:59.903Z,101936.67
2023-04-07T11:06:11.307Z,101933.61
2023-04-07T11:07:16.342Z,101938.42
2023-04-07T11:08:38.929Z,101939.13
2023-04-07T11:09:42.688Z,101936.65
2023-04-07T11:10:48.140Z,101934.52
2023-04-07T11:11:52.264Z,101936.48
2023-04-07T11:13:03.631Z,101935.88
2023-04-07T11:14:06.747Z,101934.09
2023-04-07T11:15:22.915Z,101931.42
2023-04-07T11:16:36.688Z,101926.55
2023-04-07T11:17:39.697Z,101929.55
2023-04-07T11:18:43.715Z,101929.37
2023-04-07T11:19:53.859Z,101927.23
2023-04-07T11:20:59.166Z,101927.15
2023-04-07T11:22:28.581Z,101926.11
2023-04-07T11:23:42.793Z,101922.63
2023-04-07T11:24:48.578Z,101923.66
2023-04-07T11:25:54.062Z,101923.33
2023-04-07T11:26:57.155Z,101917.71
2023-04-07T11:28:00.612Z,101919.66
2023-04-07T11:29:03.647Z,101925.70
2023-04-07T11:30:10.088Z,101921.77
2023-04-07T11:31:21.221Z,101923.83
2023-04-07T11:32:26.157Z,101924.49
2023-04-07T11:33:31.736Z,101925.67
2023-04-07T11:34:36.640Z,101923.56
2023-04-07T11:35:39.553Z,101923.32
2023-04-07T11:36:42.585Z,101925.02
2023-04-07T11:37:46.113Z,101922.09
2023-04-07T11:38:49.086Z,101920.58
2023-04-07T11:39:56.297Z,101918.89
2023-04-07T11:41:14.186Z,101919.18
2023-04-07T11:42:17.041Z,101920.52
2023-04-07T11:43:23.176Z,101922.55
2023-04-07T11:44:26.812Z,101920.60
2023-04-07T11:45:29.869Z,101918.52
2023-04-07T11:46:33.070Z,101920.30
2023-04-07T11:47:39.166Z,101916.83
2023-04-07T11:48:44.407Z,101912.81
2023-04-07T11:49:48.946Z,101914.32
2023-04-07T11:50:52.219Z,101912.04
2023-04-07T11:52:07.256Z,101910.36
2023-04-07T11:53:10.608Z,101916.31
2023-04-07T11:54:13.832Z,101915.25
2023-04-07T11:55:24.721Z,101920.52
2023-04-07T11:56:28.189Z,101917.20
2023-04-07T11:57:31.062Z,101915.39
2023-04-07T11:58:34.068Z,101912.55
2023-04-07T11:59:37.181Z,101912.77
2023-04-07T12:00:54.604Z,101910.91
2023-04-07T12:01:58.120Z,101905.89
2023-04-07T12:03:11.399Z,101909.37
2023-04-07T12:04:16.217Z,101907.55
2023-04-07T12:05:19.689Z,101912.80
2023-04-07T12:06:38.701Z,101909.52
2023-04-07T12:07:54.261Z,101907.20
2023-04-07T12:08:57.094Z,101910.59
2023-04-07T12:10:18.922Z,101914.52
2023-04-07T12:11:21.775Z,101914.77
2023-04-07T12:12:29.209Z,101916.96
2023-04-07T12:13:32.121Z,101913.99
2023-04-07T12:14:36.082Z,101911.21
2023-04-07T12:15:38.848Z,101912.89
2023-04-07T12:16:42.984Z,101914.35
2023-04-07T12:17:47.930Z,101913.71
2023-04-07T12:18:54.583Z,101911.67
2023-04-07T12:19:57.406Z,101909.52
2023-04-07T12:21:00.499Z,101910.39
2023-04-07T12:22:04.002Z,101914.55
2023-04-07T12:23:06.983Z,101912.05
2023-04-07T12:24:09.956Z,101915.26
2023-04-07T12:25:12.871Z,101910.29
2023-04-07T12:26:16.156Z,101908.31
2023-04-07T12:27:20.132Z,101909.15
2023-04-07T12:28:24.325Z,101914.56
2023-04-07T12:29:27.113Z,101911.83
2023-04-07T12:30:30.050Z,101910.74
2023-04-07T12:31:33.474Z,101908.75
2023-04-07T12:32:38.041Z,101909.68
2023-04-07T12:33:41.127Z,101906.37
2023-04-07T12:34:44.622Z,101912.43
2023-04-07T12:35:47.733Z,101915.90
2023-04-07T12:36:50.720Z,101913.86
2023-04-07T12:37:54.143Z,101912.24
2023-04-07T12:38:57.569Z,101917.19
2023-04-07T12:40:00.707Z,101917.56
2023-04-07T12:41:03.771Z,101921.77
2023-04-07T12:42:07.677Z,101918.51
2023-04-07T12:43:10.762Z,101925.17
2023-04-07T12:44:13.688Z,101920.92
2023-04-07T12:45:16.526Z,101916.23
2023-04-07T12:46:20.169Z,101920.41
2023-04-07T12:47:23.116Z,101918.67
2023-04-07T12:48:27.815Z,101925.52
2023-04-07T12:49:30.646Z,101923.77
2023-04-07T12:50:36.281Z,101925.45
2023-04-07T12:51:40.277Z,101922.84
2023-04-07T12:52:43.256Z,101927.56
2023-04-07T12:53:47.955Z,101928.30
2023-04-07T12:54:51.266Z,101927.45
2023-04-07T12:55:54.299Z,101929.21
2023-04-07T12:56:57.176Z,101922.28
2023-04-07T12:58:00.454Z,101917.75
2023-04-07T12:59:04.035Z,101920.83
2023-04-07T13:00:08.400Z,101922.74
2023-04-07T13:01:11.918Z,101920.23
2023-04-07T13:02:15.415Z,101925.44
2023-04-07T13:03:18.621Z,101922.39
2023-04-07T13:04:22.221Z,101921.80
2023-04-07T13:05:25.149Z,101923.81
2023-04-07T13:06:27.979Z,101922.16
2023-04-07T13:07:30.981Z,101923.20
2023-04-07T13:08:33.772Z,101927.23
2023-04-07T13:09:36.981Z,101922.59
2023-04-07T13:10:39.826Z,101922.66
2023-04-07T13:11:42.652Z,101922.39
2023-04-07T13:12:45.763Z,101925.45
2023-04-07T13:13:48.807Z,101927.02
2023-04-07T13:14:59.578Z,101935.19
2023-04-07T13:16:02.953Z,101929.60
2023-04-07T13:17:06.946Z,101927.23
2023-04-07T13:18:10.076Z,101929.40
2023-04-07T13:19:13.192Z,101927.77
2023-04-07T13:20:19.879Z,101922.42
2023-04-07T13:22:30.816Z,101927.04
2023-04-07T13:23:42.698Z,101928.23
2023-04-07T13:24:46.785Z,101927.28
2023-04-07T13:25:49.742Z,101923.75
2023-04-07T13:26:53.068Z,101926.63
2023-04-07T13:27:55.996Z,101919.83
2023-04-07T13:28:58.882Z,101920.19
2023-04-07T13:30:01.943Z,101917.09
2023-04-07T13:31:05.123Z,101912.79
2023-04-07T13:32:09.256Z,101920.45
2023-04-07T13:33:12.389Z,101920.67
2023-04-07T13:34:15.802Z,101919.73
2023-04-07T13:35:18.820Z,101919.72
2023-04-07T13:36:23.423Z,101919.52
2023-04-07T13:37:26.611Z,101917.64
2023-04-07T13:38:29.403Z,101915.35
2023-04-07T13:39:33.141Z,101916.95
2023-04-07T13:40:36.058Z,101916.65
2023-04-07T13:41:38.889Z,101917.77
2023-04-07T13:42:43.079Z,101912.74
2023-04-07T13:43:46.002Z,101917.06
2023-04-07T13:44:50.699Z,101915.67
2023-04-07T13:45:53.619Z,101913.98
2023-04-07T13:46:57.750Z,101911.51
2023-04-07T13:48:00.996Z,101907.44
2023-04-07T13:49:03.919Z,101908.68
2023-04-07T13:50:07.533Z,101908.30
2023-04-07T13:51:11.337Z,101910.69
2023-04-07T13:52:14.735Z,101906.89
2023-04-07T13:53:19.303Z,101903.35
2023-04-07T13:54:22.659Z,101903.02
2023-04-07T13:55:25.644Z,101899.98
2023-04-07T13:56:28.509Z,101899.86
2023-04-07T13:57:32.086Z,101900.51
2023-04-07T13:58:35.465Z,101896.66
2023-04-07T13:59:38.306Z,101892.17
2023-04-07T14:00:41.748Z,101893.01
2023-04-07T14:01:44.641Z,101889.73
2023-04-07T14:02:49.627Z,101891.25
2023-04-07T14:03:52.934Z,101892.64
2023-04-07T14:04:56.982Z,101890.36
2023-04-07T14:06:01.288Z,101886.95
2023-04-07T14:07:04.262Z,101885.25
2023-04-07T14:08:07.193Z,101884.86
2023-04-07T14:09:10.183Z,101879.49
2023-04-07T14:10:13.265Z,101885.14
2023-04-07T14:11:19.773Z,101887.73
2023-04-07T14:12:23.586Z,101885.67
2023-04-07T14:13:26.467Z,101887.10
2023-04-07T14:14:29.673Z,101888.64
2023-04-07T14:15:34.058Z,101884.48
2023-04-07T14:16:37.737Z,101882.11
2023-04-07T14:17:40.596Z,101882.97
2023-04-07T14:18:44.254Z,101876.17
2023-04-07T14:19:47.828Z,101879.59
2023-04-07T14:20:50.711Z,101876.15
2023-04-07T14:21:53.810Z,101879.70
2023-04-07T14:22:56.828Z,101879.31
2023-04-07T14:24:00.213Z,101873.60
2023-04-07T14:25:04.060Z,101874.20
2023-04-07T14:26:10.004Z,101873.95
2023-04-07T14:27:14.226Z,101874.67
2023-04-07T14:28:17.080Z,101871.23
2023-04-07T14:29:20.452Z,101873.38
2023-04-07T14:30:23.452Z,101871.02
2023-04-07T14:31:26.239Z,101869.05
2023-04-07T14:32:33.411Z,101874.89
2023-04-07T14:33:36.590Z,101872.77
2023-04-07T14:34:39.437Z,101870.95
2023-04-07T14:35:42.274Z,101874.84
2023-04-07T14:36:56.141Z,101874.14
2023-04-07T14:37:59.132Z,101872.53
2023-04-07T14:39:02.072Z,101874.88
2023-04-07T14:40:06.569Z,101873.05
2023-04-07T14:41:10.747Z,101874.00
2023-04-07T14:42:13.949Z,101874.55
2023-04-07T14:43:16.792Z,101873.75
2023-04-07T14:44:19.640Z,101875.33
2023-04-07T14:45:22.911Z,101876.12
2023-04-07T14:46:29.132Z,101873.58
2023-04-07T14:47:32.220Z,101873.41
2023-04-07T14:48:35.069Z,101872.89
2023-04-07T14:49:37.981Z,101873.07
2023-04-07T14:50:41.427Z,101876.38
2023-04-07T14:51:45.391Z,101877.23
2023-04-07T14:52:48.181Z,101875.15
2023-04-07T14:53:55.901Z,101873.52
2023-04-07T14:55:00.443Z,101875.19
2023-04-07T14:56:07.166Z,101874.79
2023-04-07T14:57:11.563Z,101875.73
2023-04-07T14:58:14.704Z,101879.48
2023-04-07T14:59:17.567Z,101872.44
2023-04-07T15:00:20.481Z,101877.88
2023-04-07T15:01:23.681Z,101878.08
2023-04-07T15:02:29.336Z,101880.74
2023-04-07T15:03:33.485Z,101883.80
2023-04-07T15:04:36.605Z,101881.12
2023-04-07T15:05:39.441Z,101879.55
2023-04-07T15:06:43.332Z,101882.02
2023-04-07T15:07:49.954Z,101883.39
2023-04-07T15:08:52.926Z,101886.13
2023-04-07T15:09:56.850Z,101883.06
2023-04-07T15:10:59.888Z,101885.54
2023-04-07T15:12:02.789Z,101881.14
2023-04-07T15:13:05.812Z,101883.39
2023-04-07T15:14:08.680Z,101879.84
2023-04-07T15:15:11.464Z,101880.05
2023-04-07T15:16:15.703Z,101880.31
2023-04-07T15:17:18.833Z,101882.73
2023-04-07T15:18:22.030Z,101880.55
2023-04-07T15:19:25.050Z,101880.02
2023-04-07T15:20:27.825Z,101881.71
2023-04-07T15:21:30.994Z,101882.13
2023-04-07T15:22:34.125Z,101881.02
2023-04-07T15:23:38.160Z,101880.15
2023-04-07T15:24:42.695Z,101874.58
2023-04-07T15:25:47.409Z,101874.27
2023-04-07T15:26:50.370Z,101871.38
2023-04-07T15:27:53.320Z,101870.50
2023-04-07T15:28:56.254Z,101871.81
2023-04-07T15:29:59.280Z,101876.99
2023-04-07T15:31:02.357Z,101877.80
2023-04-07T15:32:05.776Z,101874.05
2023-04-07T15:33:08.688Z,101870.60
2023-04-07T15:34:12.847Z,101866.25
2023-04-07T15:35:15.975Z,101870.20
2023-04-07T15:36:18.795Z,101867.67
2023-04-07T15:37:21.530Z,101872.59
2023-04-07T15:38:24.495Z,101870.17
2023-04-07T15:39:27.418Z,101869.34
2023-04-07T15:40:30.452Z,101869.40
2023-04-07T15:41:34.094Z,101871.21
2023-04-07T15:42:41.798Z,101872.13
2023-04-07T15:43:45.120Z,101869.88
2023-04-07T15:44:48.305Z,101876.28
2023-04-07T15:45:51.372Z,101876.50
2023-04-07T15:46:54.471Z,101874.09
2023-04-07T15:47:57.679Z,101872.48
2023-04-07T15:49:00.732Z,101872.93
2023-04-07T15:50:03.934Z,101872.05
2023-04-07T15:51:06.831Z,101870.61
2023-04-07T15:52:12.018Z,101875.25
2023-04-07T15:53:14.803Z,101873.91
2023-04-07T15:54:17.833Z,101876.13
2023-04-07T15:55:20.773Z,101874.36
2023-04-07T15:56:24.972Z,101871.61
2023-04-07T15:57:27.831Z,101871.38
2023-04-07T15:58:31.645Z,101872.85
2023-04-07T15:59:36.316Z,101875.10
2023-04-07T16:00:39.860Z,101870.28
2023-04-07T16:01:43.027Z,101871.77
2023-04-07T16:02:46.046Z,101873.73
2023-04-07T16:03:49.351Z,101869.92
2023-04-07T16:04:52.621Z,101874.02
2023-04-07T16:05:55.987Z,101873.55
2023-04-07T16:06:58.928Z,101869.11
2023-04-07T16:08:01.777Z,101868.91
2023-04-07T16:09:04.792Z,101870.55
2023-04-07T16:10:08.738Z,101868.61
2023-04-07T16:11:11.620Z,101868.08
2023-04-07T16:12:14.510Z,101872.70
2023-04-07T16:13:18.067Z,101870.70
2023-04-07T16:14:20.857Z,101870.33
2023-04-07T16:15:36.842Z,101870.55
2023-04-07T16:16:44.601Z,101875.41
2023-04-07T16:17:48.520Z,101875.16
2023-04-07T16:18:51.960Z,101876.19
2023-04-07T16:19:54.754Z,101876.79
2023-04-07T16:20:57.685Z,101880.06
2023-04-07T16:22:00.488Z,101883.77
2023-04-07T16:23:03.469Z,101879.64
2023-04-07T16:24:06.345Z,101881.63
2023-04-07T16:25:09.647Z,101878.73
2023-04-07T16:26:12.738Z,101881.38
2023-04-07T16:27:15.547Z,101883.61
2023-04-07T16:28:18.390Z,101882.80
2023-04-07T16:29:22.457Z,101887.77
2023-04-07T16:30:25.463Z,101888.03
2023-04-07T16:31:28.390Z,101888.80
2023-04-07T16:32:32.566Z,101890.38
2023-04-07T16:33:36.633Z,101888.52
2023-04-07T16:34:39.445Z,101890.72
2023-04-07T16:35:42.392Z,101892.13
2023-04-07T16:36:45.699Z,101891.08
2023-04-07T16:37:50.082Z,101891.44
2023-04-07T16:38:53.071Z,101894.89
2023-04-07T16:39:59.607Z,101889.16
2023-04-07T16:41:04.711Z,101888.61
2023-04-07T16:42:08.196Z,101890.55
2023-04-07T16:43:11.804Z,101887.60
2023-04-07T16:44:14.589Z,101893.56
2023-04-07T16:45:17.533Z,101891.38
2023-04-07T16:46:20.665Z,101890.08
2023-04-07T16:47:24.933Z,101889.91
2023-04-07T16:48:28.154Z,101892.77
2023-04-07T16:49:31.078Z,101895.60
2023-04-07T16:50:33.894Z,101898.54
2023-04-07T16:51:36.635Z,101901.36
2023-04-07T16:52:40.493Z,101901.98
2023-04-07T16:53:43.502Z,101903.80
2023-04-07T16:54:46.922Z,101901.98
2023-04-07T16:55:49.780Z,101904.98
2023-04-07T16:56:52.509Z,101903.20
2023-04-07T16:57:55.708Z,101904.64
2023-04-07T16:58:58.507Z,101902.48
2023-04-07T17:00:01.619Z,101901.43
2023-04-07T17:01:04.490Z,101901.98
2023-04-07T17:02:11.925Z,101903.56
2023-04-07T17:03:15.870Z,101910.51
2023-04-07T17:04:19.244Z,101911.48
2023-04-07T17:05:22.315Z,101909.20
2023-04-07T17:06:25.148Z,101909.28
2023-04-07T17:07:27.922Z,101910.54
2023-04-07T17:08:32.409Z,101911.36
2023-04-07T17:09:35.845Z,101914.75
2023-04-07T17:10:38.673Z,101916.39
2023-04-07T17:11:42.335Z,101914.50
2023-04-07T17:12:46.213Z,101913.28
2023-04-07T17:13:49.566Z,101914.25
2023-04-07T17:14:52.873Z,101911.27
2023-04-07T17:15:56.260Z,101914.55
2023-04-07T17:16:59.114Z,101914.95
2023-04-07T17:18:02.052Z,101912.08
2023-04-07T17:19:04.924Z,101915.52
2023-04-07T17:20:08.923Z,101921.50
2023-04-07T17:21:12.227Z,101921.77
2023-04-07T17:22:15.811Z,101920.27
2023-04-07T17:23:18.679Z,101922.13
2023-04-07T17:24:22.327Z,101921.22
2023-04-07T17:25:25.587Z,101927.57
2023-04-07T17:26:28.499Z,101931.61
2023-04-07T17:27:31.427Z,101934.11
2023-04-07T17:28:34.431Z,101928.91
2023-04-07T17:29:37.690Z,101930.84
2023-04-07T17:30:41.648Z,101928.13
2023-04-07T17:31:45.268Z,101932.31
2023-04-07T17:32:50.635Z,101932.27
2023-04-07T17:33:53.669Z,101932.29
2023-04-07T17:34:56.855Z,101932.18
2023-04-07T17:36:05.807Z,101932.19
2023-04-07T17:37:08.620Z,101932.48
2023-04-07T17:38:11.457Z,101933.63
2023-04-07T17:39:14.303Z,101939.19
2023-04-07T17:40:17.688Z,101940.22
2023-04-07T17:41:21.273Z,101942.09
2023-04-07T17:42:24.016Z,101939.85
2023-04-07T17:43:28.686Z,101938.55
2023-04-07T17:44:31.753Z,101940.11
2023-04-07T17:45:35.117Z,101939.99
2023-04-07T17:46:38.267Z,101938.28
2023-04-07T17:47:41.221Z,101939.29
2023-04-07T17:48:48.121Z,101942.10
2023-04-07T17:49:50.966Z,101942.60
2023-04-07T17:50:53.894Z,101942.09
2023-04-07T17:51:57.244Z,101946.60
2023-04-07T17:53:00.948Z,101942.73
2023-04-07T17:54:04.050Z,101946.30
2023-04-07T17:55:08.428Z,101945.06
2023-04-07T17:56:12.763Z,101949.95
2023-04-07T17:57:16.135Z,101951.02
2023-04-07T17:58:21.069Z,101952.08
2023-04-07T17:59:24.001Z,101952.05
2023-04-07T18:00:27.807Z,101954.05
2023-04-07T18:01:30.931Z,101956.95
2023-04-07T18:02:34.874Z,101957.49
2023-04-07T18:03:38.499Z,101958.09
2023-04-07T18:04:41.593Z,101963.73
2023-04-07T18:05:46.546Z,101968.33
2023-04-07T18:06:50.460Z,101969.36
2023-04-07T18:07:54.924Z,101972.36
2023-04-07T18:08:57.865Z,101973.06
2023-04-07T18:10:01.408Z,101975.27
2023-04-07T18:11:06.509Z,101973.04
2023-04-07T18:12:10.501Z,101972.50
2023-04-07T18:13:13.427Z,101969.56
2023-04-07T18:14:16.692Z,101973.02
2023-04-07T18:15:19.941Z,101979.77
2023-04-07T18:16:23.585Z,101974.13
2023-04-07T18:17:26.674Z,101976.40
2023-04-07T18:18:29.960Z,101974.40
2023-04-07T18:19:34.066Z,101973.50
2023-04-07T18:20:38.118Z,101975.07
2023-04-07T18:21:41.748Z,101976.52
2023-04-07T18:22:45.945Z,101979.92
2023-04-07T18:23:49.556Z,101980.95
2023-04-07T18:24:53.127Z,101984.22
2023-04-07T18:25:56.319Z,101985.60
2023-04-07T18:26:59.983Z,101990.33
2023-04-07T18:28:04.377Z,101991.86
2023-04-07T18:29:10.042Z,101989.17
2023-04-07T18:30:13.416Z,101991.25
2023-04-07T18:31:16.628Z,101989.61
2023-04-07T18:32:20.547Z,101986.45
2023-04-07T18:33:24.202Z,101983.81
2023-04-07T18:34:27.698Z,101983.62
2023-04-07T18:35:30.803Z,101986.77
2023-04-07T18:36:34.510Z,101986.58
2023-04-07T18:37:37.312Z,101994.69
2023-04-07T18:38:40.846Z,101989.31
2023-04-07T18:39:45.020Z,101989.69
2023-04-07T18:40:48.157Z,101994.07
2023-04-07T18:41:51.775Z,101990.72
2023-04-07T18:42:55.716Z,101998.01
2023-04-07T18:43:59.671Z,101995.73
2023-04-07T18:45:03.620Z,101999.45
2023-04-07T18:46:07.443Z,102001.40
2023-04-07T18:47:10.603Z,102002.54
2023-04-07T18:48:15.488Z,102009.24
2023-04-07T18:49:18.812Z,102006.33
2023-04-07T18:50:22.851Z,102004.58
2023-04-07T18:51:26.549Z,102007.25
2023-04-07T18:52:29.847Z,102004.27
2023-04-07T18:53:33.586Z,102008.31
2023-04-07T18:54:37.330Z,102009.69
2023-04-07T18:55:41.414Z,102009.25
2023-04-07T18:56:45.336Z,102015.46
2023-04-07T18:57:48.946Z,102018.56
2023-04-07T18:58:52.032Z,102012.72
2023-04-07T18:59:55.941Z,102013.60
2023-04-07T19:00:59.886Z,102013.05
2023-04-07T19:02:03.369Z,102011.67
2023-04-07T19:03:07.665Z,102011.55
2023-04-07T19:04:11.696Z,102015.17
2023-04-07T19:05:15.563Z,102009.23
2023-04-07T19:06:19.495Z,102013.20
2023-04-07T19:07:23.193Z,102010.42
2023-04-07T19:08:26.748Z,102013.55
2023-04-07T19:09:30.414Z,102013.74
2023-04-07T19:10:34.507Z,102016.38
2023-04-07T19:11:37.891Z,102018.11
2023-04-07T19:12:41.020Z,102015.90
2023-04-07T19:13:43.930Z,102015.86
2023-04-07T19:14:47.148Z,102016.06
2023-04-07T19:15:50.868Z,102016.00
2023-04-07T19:16:54.457Z,102012.94
2023-04-07T19:17:58.952Z,102013.70
2023-04-07T19:19:02.473Z,102025.05
2023-04-07T19:20:06.746Z,102029.20
2023-04-07T19:21:10.334Z,102025.84
2023-04-07T19:22:13.324Z,102027.36
2023-04-07T19:23:16.551Z,102025.41
2023-04-07T19:24:19.768Z,102019.45
2023-04-07T19:25:23.432Z,102026.36
2023-04-07T19:26:29.617Z,102031.80
2023-04-07T19:27:33.306Z,102027.33
2023-04-07T19:28:36.437Z,102025.91
2023-04-07T19:29:39.297Z,102025.86
2023-04-07T19:30:42.220Z,102017.41
2023-04-07T19:31:45.774Z,102014.84
2023-04-07T19:32:49.329Z,102020.70
2023-04-07T19:33:52.237Z,102021.32
2023-04-07T19:34:55.341Z,102017.92
2023-04-07T19:35:58.295Z,102022.88
2023-04-07T19:37:01.277Z,102024.09
2023-04-07T19:38:05.805Z,102021.56
2023-04-07T19:39:08.841Z,102019.33
2023-04-07T19:40:12.083Z,102020.98
2023-04-07T19:41:14.996Z,102015.38
2023-04-07T19:42:18.182Z,102017.71
2023-04-07T19:43:21.555Z,102016.06
2023-04-07T19:44:26.353Z,102017.88
2023-04-07T19:45:29.347Z,102017.23
2023-04-07T19:46:33.927Z,102017.31
2023-04-07T19:47:38.895Z,102014.74
2023-04-07T19:48:42.554Z,102014.11
2023-04-07T19:49:46.215Z,102017.44
2023-04-07T19:50:51.292Z,102013.89
2023-04-07T19:51:54.642Z,102012.77
2023-04-07T19:52:57.635Z,102012.04
2023-04-07T19:54:00.825Z,102013.47
2023-04-07T19:55:04.006Z,102009.40
2023-04-07T19:56:07.204Z,102005.81
2023-04-07T19:57:10.132Z,102012.18
2023-04-07T19:58:13.604Z,102013.22
2023-04-07T19:59:17.002Z,102016.69
2023-04-07T20:00:20.104Z,102022.36
2023-04-07T20:01:25.725Z,102022.73
2023-04-07T20:02:29.060Z,102023.10
2023-04-07T20:03:33.533Z,102017.33
2023-04-07T20:04:36.817Z,102018.33
2023-04-07T20:05:39.855Z,102020.29
2023-04-07T20:06:42.755Z,102020.27
2023-04-07T20:07:45.790Z,102022.89
2023-04-07T20:08:49.504Z,102022.83
2023-04-07T20:09:54.891Z,102020.46
2023-04-07T20:10:57.797Z,102022.56
2023-04-07T20:12:01.869Z,102019.73
2023-04-07T20:13:06.307Z,102022.29
2023-04-07T20:14:09.652Z,102025.71
2023-04-07T20:15:12.705Z,102024.09
2023-04-07T20:16:15.756Z,102025.23
2023-04-07T20:17:18.603Z,102021.13
2023-04-07T20:18:21.531Z,102025.23
2023-04-07T20:19:24.431Z,102027.73
2023-04-07T20:20:27.512Z,102025.60
2023-04-07T20:21:32.412Z,102028.91
2023-04-07T20:22:35.554Z,102030.27
2023-04-07T20:23:38.790Z,102032.94
2023-04-07T20:24:41.671Z,102032.77
2023-04-07T20:25:44.603Z,102033.31
2023-04-07T20:26:47.447Z,102031.61
2023-04-07T20:27:50.530Z,102033.29
2023-04-07T20:28:53.446Z,102038.55
2023-04-07T20:29:56.595Z,102037.08
2023-04-07T20:30:59.765Z,102037.95
2023-04-07T20:32:02.989Z,102040.69
2023-04-07T20:33:06.024Z,102039.42
2023-04-07T20:34:08.918Z,102043.35
2023-04-07T20:35:12.083Z,102042.25
2023-04-07T20:36:15.211Z,102043.23
2023-04-07T20:37:22.006Z,102042.20
2023-04-07T20:38:25.261Z,102044.29
2023-04-07T20:39:28.097Z,102045.92
2023-04-07T20:40:34.794Z,102045.44
2023-04-07T20:41:38.731Z,102043.41
2023-04-07T20:42:41.635Z,102042.67
2023-04-07T20:43:44.614Z,102042.84
2023-04-07T20:44:50.519Z,102043.80
2023-04-07T20:45:53.692Z,102043.33
2023-04-07T20:46:56.774Z,102040.16
2023-04-07T20:48:00.281Z,102039.23
2023-04-07T20:49:04.701Z,102040.98
2023-04-07T20:50:08.348Z,102040.60
2023-04-07T20:51:11.498Z,102039.27
2023-04-07T20:52:14.604Z,102041.71
2023-04-07T20:53:18.392Z,102040.98
2023-04-07T20:54:21.296Z,102044.10
2023-04-07T20:55:24.247Z,102042.23
2023-04-07T20:56:27.287Z,102042.70
2023-04-07T20:57:30.823Z,102042.91
2023-04-07T20:58:33.682Z,102043.61
2023-04-07T20:59:36.572Z,102041.10
2023-04-07T21:00:39.951Z,102041.52
2023-04-07T21:01:43.269Z,102045.09
2023-04-07T21:02:48.727Z,102045.35
2023-04-07T21:03:53.011Z,102043.91
2023-04-07T21:04:56.499Z,102042.17
2023-04-07T21:05:59.411Z,102042.10
2023-04-07T21:07:02.392Z,102041.90
2023-04-07T21:08:06.362Z,102039.73
2023-04-07T21:09:09.549Z,102039.34
2023-04-07T21:10:14.472Z,102039.17
2023-04-07T21:11:17.339Z,102041.23
2023-04-07T21:12:20.627Z,102041.44
2023-04-07T21:13:25.979Z,102041.71
2023-04-07T21:14:29.048Z,102042.55
2023-04-07T21:15:32.129Z,102039.75
2023-04-07T21:16:35.389Z,102043.61
2023-04-07T21:17:38.606Z,102042.94
2023-04-07T21:18:41.952Z,102048.11
2023-04-07T21:19:44.781Z,102047.95
2023-04-07T21:20:47.773Z,102044.77
2023-04-07T21:21:50.890Z,102051.06
2023-04-07T21:22:53.889Z,102051.39
2023-04-07T21:23:56.897Z,102060.39
2023-04-07T21:24:59.815Z,102069.87
2023-04-07T21:26:03.398Z,102073.02
2023-04-07T21:27:06.434Z,102073.35
2023-04-07T21:28:09.439Z,102073.28
2023-04-07T21:29:12.542Z,102074.73
2023-04-07T21:30:16.748Z,102073.94
2023-04-07T21:31:24.065Z,102070.02
2023-04-07T21:32:27.002Z,102069.08
2023-04-07T21:33:30.302Z,102066.59
2023-04-07T21:34:33.341Z,102063.90
2023-04-07T21:35:36.267Z,102060.55
2023-04-07T21:36:40.143Z,102059.48
2023-04-07T21:37:43.120Z,102066.60
2023-04-07T21:38:46.369Z,102062.80
2023-04-07T21:39:52.811Z,102066.98
2023-04-07T21:40:57.601Z,102065.93
2023-04-07T21:42:01.562Z,102069.80
2023-04-07T21:43:04.404Z,102064.72
2023-04-07T21:44:09.856Z,102070.31
2023-04-07T21:45:12.911Z,102072.48
2023-04-07T21:46:17.701Z,102071.98
2023-04-07T21:47:20.756Z,102073.52
2023-04-07T21:48:23.704Z,102075.27
2023-04-07T21:49:26.680Z,102071.48
2023-04-07T21:50:30.173Z,102071.79